Accueil
METAR-TAF:

METAR-TAF

Aéroports :

Wainwright, Alaska, États-Unis

latitude: 70-38N, longitude: 159-51W, altitude: 12 m

Observation

Le bulletin a été fait il y a 58 minutes, à 12:53 UTC
Vent 14 kt de sud/sud-ouest
Température -21°C
Humidité 77%
Pression 1010 hPa
Ciel couvert à une hauteur de 4800 ft
neige faible

METAR: PAWI 291253Z AUTO 21014KT -SN OVC048 M21/M24 A2982 RMK SLP099 T12061239 TSNO PNO $ VIA AUTODIAL

Heure: 04:51 (13:51 UTC)


TAF: absent

Observations et prévisions météorologiques de plus de 4000 aéroports (messages METAR et TAF).

Les stations disponibles sont représentées par des disques jaunes et rouges sur la carte.

Passer la souris dessus pour voir le nom de la station.

Cliquer dessus pour voir les observations et prévisions météorologiques.

Pour changer de carte: cliquez sur les boutons verts avec une croix noire pour zoomer, sur le bouton vert avec un tiret pour effectuer un zoom arrière, ou sur les flèches vertes pour les cartes adjacentes.


METAR-TAF: